Stony Creek, Virginia
Current Conditions -  °F | °C
As of 11:15 AM on Monday 22 Dec 2014 (Local Time) from KPTB Reporting Station
Light Rain Light Rain  
Wind Chill: 32°   Ceiling: 400
Heat Index: 38°   Visibility: 1.5mi
Dew Point: 37°   Wind: 9mph
Humidity: 97%   Direction: 20°NNE
Pressure: 30.18"   Gusts: NA
Location:  36.95°N, 77.4°W
Report Text: KPTB 221615Z AUTO 02008KT 1 1/2SM -RA OVC004 04/03 A3018 RMK AO2 P0001 T00350030
Loading
Personal Weather Stations






























Interactive Weather Map New forecast layout! Learn more

10-Day Weather Forecast

Advertisements
Track Severe Weather on mobile